createdAt,value
2023-02-02T00:01:13.452Z,101169.34
2023-02-02T00:03:40.253Z,101150.78
2023-02-02T00:06:07.053Z,101182.81
2023-02-02T00:08:35.932Z,101182.19
2023-02-02T00:11:02.469Z,101179.47
2023-02-02T00:13:28.928Z,101164.13
2023-02-02T00:15:55.757Z,101137.53
2023-02-02T00:18:22.235Z,101157.16
2023-02-02T00:20:50.136Z,101174.09
2023-02-02T00:23:17.396Z,101184.41
2023-02-02T00:25:43.911Z,101135.53
2023-02-02T00:28:10.668Z,101186.88
2023-02-02T00:30:37.217Z,101180.97
2023-02-02T00:33:03.882Z,101177.53
2023-02-02T00:35:30.553Z,101176.53
2023-02-02T00:37:57.032Z,101160.66
2023-02-02T00:40:24.914Z,101166.00
2023-02-02T00:42:51.556Z,101149.66
2023-02-02T00:45:18.493Z,101181.13
2023-02-02T00:47:47.154Z,101177.25
2023-02-02T00:50:19.273Z,101181.06
2023-02-02T00:52:47.124Z,101184.13
2023-02-02T00:55:14.456Z,101180.19
2023-02-02T00:57:41.328Z,101180.97
2023-02-02T01:00:09.347Z,101181.09
2023-02-02T01:02:36.158Z,101186.91
2023-02-02T01:05:03.125Z,101192.16
2023-02-02T01:07:29.756Z,101192.66
2023-02-02T01:09:56.309Z,101192.63
2023-02-02T01:12:22.919Z,101202.88
2023-02-02T01:14:49.388Z,101196.16
2023-02-02T01:17:15.903Z,101192.22
2023-02-02T01:19:42.718Z,101201.50
2023-02-02T01:22:09.868Z,101206.00
2023-02-02T01:24:36.346Z,101193.56
2023-02-02T01:27:02.855Z,101175.97
2023-02-02T01:29:29.360Z,101186.56
2023-02-02T01:31:55.854Z,101197.50
2023-02-02T01:34:22.441Z,101189.94
2023-02-02T01:36:49.047Z,101193.66
2023-02-02T01:39:15.518Z,101184.25
2023-02-02T01:41:42.286Z,101206.59
2023-02-02T01:44:46.465Z,101213.16
2023-02-02T01:47:13.457Z,101217.00
2023-02-02T01:49:40.569Z,101205.94
2023-02-02T01:52:10.005Z,101202.66
2023-02-02T01:54:45.315Z,101226.72
2023-02-02T01:57:42.442Z,101230.31
2023-02-02T02:00:13.249Z,101232.59
2023-02-02T02:02:40.446Z,101237.59
2023-02-02T02:05:08.147Z,101198.69
2023-02-02T02:07:34.859Z,101206.72
2023-02-02T02:10:01.396Z,101235.06
2023-02-02T02:12:27.833Z,101225.25
2023-02-02T02:15:13.046Z,101223.81
2023-02-02T02:18:04.521Z,101219.13
2023-02-02T02:21:23.982Z,101222.19
2023-02-02T02:24:53.801Z,101224.97
2023-02-02T02:27:34.526Z,101209.19
2023-02-02T02:30:09.950Z,101225.66
2023-02-02T02:32:42.556Z,101223.72
2023-02-02T02:35:17.109Z,101218.13
2023-02-02T02:38:20.875Z,101209.63
2023-02-02T02:41:09.106Z,101198.50
2023-02-02T02:43:41.594Z,101204.13
2023-02-02T02:46:09.481Z,101217.00
2023-02-02T02:48:36.033Z,101214.28
2023-02-02T02:51:47.804Z,101188.91
2023-02-02T02:54:31.594Z,101207.72
2023-02-02T02:57:06.455Z,101166.09
2023-02-02T02:59:45.031Z,101209.53
2023-02-02T03:02:16.947Z,101213.72
2023-02-02T03:05:03.767Z,101221.84
2023-02-02T03:07:37.191Z,101224.09
2023-02-02T03:10:05.666Z,101229.25
2023-02-02T03:12:32.202Z,101214.69
2023-02-02T03:14:58.769Z,101136.03
2023-02-02T03:17:27.706Z,101218.69
2023-02-02T03:19:54.156Z,101220.44
2023-02-02T03:22:20.861Z,101227.97
2023-02-02T03:24:47.404Z,101211.38
2023-02-02T03:27:14.157Z,101213.25
2023-02-02T03:29:43.059Z,101200.91
2023-02-02T03:32:09.798Z,101191.84
2023-02-02T03:34:36.828Z,101185.53
2023-02-02T03:37:03.377Z,101199.06
2023-02-02T03:39:29.959Z,101193.72
2023-02-02T03:41:56.479Z,101187.22
2023-02-02T03:44:22.986Z,101157.69
2023-02-02T03:46:53.352Z,101209.69
2023-02-02T03:49:20.020Z,101212.72
2023-02-02T03:51:46.645Z,101187.97
2023-02-02T03:54:13.826Z,101197.34
2023-02-02T03:56:40.375Z,101195.88
2023-02-02T03:59:06.926Z,101192.72
2023-02-02T04:01:33.616Z,101200.66
2023-02-02T04:04:00.199Z,101215.88
2023-02-02T04:06:26.935Z,101184.56
2023-02-02T04:08:53.483Z,101222.03
2023-02-02T04:11:20.141Z,101220.84
2023-02-02T04:13:46.652Z,101198.19
2023-02-02T04:16:13.384Z,101188.97
2023-02-02T04:18:40.379Z,101203.81
2023-02-02T04:21:08.528Z,101223.72
2023-02-02T04:23:35.113Z,101204.56
2023-02-02T04:26:01.940Z,101224.75
2023-02-02T04:28:28.778Z,101231.47
2023-02-02T04:30:56.338Z,101217.34
2023-02-02T04:33:27.105Z,101227.78
2023-02-02T04:35:53.903Z,101225.44
2023-02-02T04:38:20.519Z,101218.84
2023-02-02T04:40:48.271Z,101242.97
2023-02-02T04:43:15.279Z,101237.69
2023-02-02T04:45:42.445Z,101241.06
2023-02-02T04:48:09.740Z,101239.56
2023-02-02T04:50:36.518Z,101228.06
2023-02-02T04:53:04.153Z,101229.69
2023-02-02T04:55:30.883Z,101216.06
2023-02-02T04:57:57.442Z,101228.34
2023-02-02T05:00:23.999Z,101212.56
2023-02-02T05:02:50.581Z,101236.34
2023-02-02T05:05:17.154Z,101206.75
2023-02-02T05:07:43.720Z,101223.50
2023-02-02T05:10:11.362Z,101208.03
2023-02-02T05:12:37.936Z,101227.78
2023-02-02T05:15:05.618Z,101226.53
2023-02-02T05:17:32.978Z,101202.81
2023-02-02T05:19:59.564Z,101240.84
2023-02-02T05:22:26.914Z,101230.38
2023-02-02T05:24:53.425Z,101198.44
2023-02-02T05:27:20.818Z,101218.81
2023-02-02T05:29:48.224Z,101212.91
2023-02-02T05:32:14.729Z,101210.94
2023-02-02T05:34:41.567Z,101206.44
2023-02-02T05:37:08.205Z,101183.66
2023-02-02T05:39:34.731Z,101206.84
2023-02-02T05:42:01.333Z,101181.06
2023-02-02T05:44:27.879Z,101210.03
2023-02-02T05:46:54.606Z,101210.47
2023-02-02T05:49:21.322Z,101187.00
2023-02-02T05:51:49.566Z,101197.63
2023-02-02T05:54:20.277Z,101207.66
2023-02-02T05:56:51.819Z,101190.34
2023-02-02T05:59:19.039Z,101182.38
2023-02-02T06:01:46.408Z,101212.03
2023-02-02T06:04:13.321Z,101201.81
2023-02-02T06:06:40.465Z,101203.97
2023-02-02T06:09:07.889Z,101200.44
2023-02-02T06:11:35.102Z,101198.06
2023-02-02T06:14:01.890Z,101216.56
2023-02-02T06:16:28.537Z,101222.28
2023-02-02T06:18:55.178Z,101215.78
2023-02-02T06:21:24.441Z,101234.31
2023-02-02T06:23:51.762Z,101211.72
2023-02-02T06:26:19.015Z,101236.50
2023-02-02T06:28:49.972Z,101200.13
2023-02-02T06:31:19.268Z,101231.84
2023-02-02T06:33:52.470Z,101232.66
2023-02-02T06:36:18.994Z,101235.22
2023-02-02T06:38:51.870Z,101230.44
2023-02-02T06:41:20.345Z,101230.88
2023-02-02T06:43:47.772Z,101213.09
2023-02-02T06:46:14.650Z,101244.00
2023-02-02T06:48:41.332Z,101257.78
2023-02-02T06:51:08.490Z,101240.03
2023-02-02T06:53:35.397Z,101262.75
2023-02-02T06:56:04.816Z,101265.81
2023-02-02T06:58:32.088Z,101235.81
2023-02-02T07:01:07.364Z,101256.94
2023-02-02T07:03:34.039Z,101239.56
2023-02-02T07:06:13.822Z,101270.84
2023-02-02T07:08:40.373Z,101171.53
2023-02-02T07:11:12.016Z,101242.50
2023-02-02T07:13:41.286Z,101238.13
2023-02-02T07:16:12.926Z,101272.03
2023-02-02T07:18:40.338Z,101284.97
2023-02-02T07:21:06.981Z,101271.84
2023-02-02T07:23:34.041Z,101227.66
2023-02-02T07:26:02.377Z,101278.91
2023-02-02T07:28:28.997Z,101255.06
2023-02-02T07:30:55.674Z,101276.38
2023-02-02T07:33:22.209Z,101270.22
2023-02-02T07:35:48.751Z,101277.34
2023-02-02T07:38:15.399Z,101260.97
2023-02-02T07:40:42.031Z,101263.19
2023-02-02T07:43:09.321Z,101285.66
2023-02-02T07:45:36.363Z,101278.47
2023-02-02T07:48:03.693Z,101246.78
2023-02-02T07:50:31.142Z,101284.75
2023-02-02T07:52:58.976Z,101289.81
2023-02-02T07:55:25.544Z,101285.28
2023-02-02T07:57:54.302Z,101284.72
2023-02-02T08:00:21.609Z,101260.19
2023-02-02T08:02:51.506Z,101243.75
2023-02-02T08:05:18.000Z,101284.53
2023-02-02T08:07:48.319Z,101286.81
2023-02-02T08:10:15.241Z,101262.03
2023-02-02T08:12:41.764Z,101272.91
2023-02-02T08:15:08.886Z,101300.59
2023-02-02T08:17:35.456Z,101295.31
2023-02-02T08:20:01.910Z,101298.38
2023-02-02T08:22:28.519Z,101284.81
2023-02-02T08:24:55.037Z,101296.47
2023-02-02T08:27:21.871Z,101307.59
2023-02-02T08:29:48.413Z,101315.53
2023-02-02T08:32:15.007Z,101314.75
2023-02-02T08:34:41.575Z,101325.53
2023-02-02T08:37:08.205Z,101315.03
2023-02-02T08:39:35.065Z,101322.66
2023-02-02T08:42:01.579Z,101305.19
2023-02-02T08:44:42.886Z,101308.25
2023-02-02T08:47:14.638Z,101331.69
2023-02-02T08:49:42.437Z,101327.41
2023-02-02T08:52:08.977Z,101329.03
2023-02-02T08:54:35.785Z,101329.16
2023-02-02T08:57:02.284Z,101298.91
2023-02-02T08:59:28.774Z,101340.16
2023-02-02T09:01:55.780Z,101340.09
2023-02-02T09:04:22.359Z,101324.34
2023-02-02T09:06:48.881Z,101357.44
2023-02-02T09:09:16.361Z,101261.44
2023-02-02T09:11:43.794Z,101356.06
2023-02-02T09:14:12.520Z,101363.72
2023-02-02T09:16:39.216Z,101313.69
2023-02-02T09:19:06.321Z,101373.34
2023-02-02T09:21:37.175Z,101370.22
2023-02-02T09:24:12.414Z,101363.97
2023-02-02T09:26:40.484Z,101369.72
2023-02-02T09:29:08.520Z,101379.94
2023-02-02T09:31:37.380Z,101378.41
2023-02-02T09:34:05.733Z,101384.78
2023-02-02T09:36:32.401Z,101375.50
2023-02-02T09:38:59.346Z,101364.78
2023-02-02T09:41:31.909Z,101396.81
2023-02-02T09:44:16.564Z,101390.94
2023-02-02T09:47:01.818Z,101397.53
2023-02-02T09:49:55.201Z,101402.44
2023-02-02T09:53:00.825Z,101401.63
2023-02-02T09:55:35.634Z,101406.44
2023-02-02T09:58:05.099Z,101423.84
2023-02-02T10:00:34.609Z,101409.44
2023-02-02T10:03:05.186Z,101435.09
2023-02-02T10:05:44.000Z,101431.25
2023-02-02T10:08:20.582Z,101429.78
2023-02-02T10:10:55.847Z,101431.69
2023-02-02T10:13:29.163Z,101435.22
2023-02-02T10:16:11.213Z,101441.00
2023-02-02T10:18:50.081Z,101440.81
2023-02-02T10:21:35.557Z,101438.59
2023-02-02T10:24:03.459Z,101415.81
2023-02-02T10:26:43.920Z,101462.94
2023-02-02T10:29:16.674Z,101460.16
2023-02-02T10:32:09.741Z,101441.75
2023-02-02T10:35:13.157Z,101464.09
2023-02-02T10:37:58.532Z,101463.34
2023-02-02T10:40:42.786Z,101466.91
2023-02-02T10:43:34.221Z,101476.19
2023-02-02T10:46:02.154Z,101463.78
2023-02-02T10:48:35.833Z,101476.28
2023-02-02T10:51:11.272Z,101450.63
2023-02-02T10:53:37.956Z,101475.25
2023-02-02T10:56:08.052Z,101468.94
2023-02-02T10:58:41.343Z,101478.66
2023-02-02T11:01:11.537Z,101452.31
2023-02-02T11:03:40.121Z,101472.09
2023-02-02T11:06:26.827Z,101471.59
2023-02-02T11:08:58.170Z,101452.06
2023-02-02T11:11:40.492Z,101486.44
2023-02-02T11:14:10.273Z,101484.72
2023-02-02T11:16:43.194Z,101489.34
2023-02-02T11:19:22.651Z,101488.41
2023-02-02T11:21:51.459Z,101490.63
2023-02-02T11:24:23.576Z,101496.66
2023-02-02T11:27:02.412Z,101471.94
2023-02-02T11:29:32.607Z,101492.34
2023-02-02T11:32:18.336Z,101462.38
2023-02-02T11:34:44.910Z,101475.84
2023-02-02T11:37:20.660Z,101447.03
2023-02-02T11:39:47.669Z,101459.56
2023-02-02T11:42:18.518Z,101481.81
2023-02-02T11:44:54.986Z,101482.25
2023-02-02T11:47:25.709Z,101484.03
2023-02-02T11:49:54.366Z,101452.34
2023-02-02T11:52:26.661Z,101495.63
2023-02-02T11:54:57.397Z,101488.31
2023-02-02T11:57:25.501Z,101482.34
2023-02-02T12:00:16.576Z,101487.28
2023-02-02T12:02:48.148Z,101487.88
2023-02-02T12:05:20.950Z,101488.84
2023-02-02T12:07:48.434Z,101486.53
2023-02-02T12:10:20.016Z,101486.34
2023-02-02T12:12:52.368Z,101489.16
2023-02-02T12:15:23.835Z,101489.25
2023-02-02T12:17:52.654Z,101489.34
2023-02-02T12:20:31.641Z,101496.69
2023-02-02T12:23:13.280Z,101491.69
2023-02-02T12:25:59.191Z,101502.97
2023-02-02T12:28:51.005Z,101512.28
2023-02-02T12:31:36.822Z,101504.78
2023-02-02T12:34:16.761Z,101506.88
2023-02-02T12:37:03.497Z,101509.13
2023-02-02T12:40:11.391Z,101509.16
2023-02-02T12:43:15.725Z,101483.22
2023-02-02T12:46:21.418Z,101485.06
2023-02-02T12:49:12.310Z,101510.41
2023-02-02T12:51:47.945Z,101496.69
2023-02-02T12:54:45.859Z,101503.59
2023-02-02T12:57:47.059Z,101472.28
2023-02-02T13:00:38.446Z,101491.06
2023-02-02T13:03:36.279Z,101501.94
2023-02-02T13:06:21.898Z,101509.47
2023-02-02T13:08:57.881Z,101506.06
2023-02-02T13:11:56.133Z,101494.78
2023-02-02T13:14:37.373Z,101498.44
2023-02-02T13:17:51.379Z,101508.88
2023-02-02T13:20:47.631Z,101477.41
2023-02-02T13:23:39.004Z,101510.84
2023-02-02T13:26:35.064Z,101510.59
2023-02-02T13:29:21.955Z,101509.81
2023-02-02T13:31:55.296Z,101521.47
2023-02-02T13:34:29.338Z,101501.06
2023-02-02T13:37:02.785Z,101524.22
2023-02-02T13:39:47.807Z,101511.53
2023-02-02T13:42:43.822Z,101522.94
2023-02-02T13:45:31.372Z,101498.69
2023-02-02T13:48:08.614Z,101500.25
2023-02-02T13:50:44.204Z,101493.06
2023-02-02T13:53:54.962Z,101531.59
2023-02-02T13:56:40.478Z,101527.63
2023-02-02T13:59:14.619Z,101512.38
2023-02-02T14:01:46.697Z,101509.81
2023-02-02T14:04:25.356Z,101496.84
2023-02-02T14:06:57.490Z,101506.56
2023-02-02T14:09:27.303Z,101526.84
2023-02-02T14:12:03.112Z,101522.78
2023-02-02T14:14:33.274Z,101524.22
2023-02-02T14:17:13.927Z,101530.63
2023-02-02T14:19:42.125Z,101534.53
2023-02-02T14:22:08.848Z,101548.38
2023-02-02T14:24:35.388Z,101545.44
2023-02-02T14:27:28.410Z,101554.41
2023-02-02T14:29:54.959Z,101547.09
2023-02-02T14:32:30.794Z,101543.38
2023-02-02T14:34:59.457Z,101555.31
2023-02-02T14:37:29.002Z,101545.81
2023-02-02T14:40:06.347Z,101547.53
2023-02-02T14:43:25.258Z,101551.94
2023-02-02T14:46:13.874Z,101556.16
2023-02-02T14:48:42.291Z,101522.38
2023-02-02T14:51:18.696Z,101563.31
2023-02-02T14:53:51.091Z,101566.97
2023-02-02T14:56:18.102Z,101567.50
2023-02-02T14:58:46.801Z,101571.56
2023-02-02T15:01:23.013Z,101582.34
2023-02-02T15:04:17.837Z,101588.00
2023-02-02T15:06:44.662Z,101571.38
2023-02-02T15:09:20.451Z,101593.34
2023-02-02T15:12:01.668Z,101589.66
2023-02-02T15:14:34.336Z,101588.28
2023-02-02T15:17:12.564Z,101573.09
2023-02-02T15:19:42.283Z,101585.06
2023-02-02T15:22:21.222Z,101574.28
2023-02-02T15:24:48.556Z,101575.94
2023-02-02T15:27:19.787Z,101580.47
2023-02-02T15:29:49.719Z,101551.38
2023-02-02T15:32:22.947Z,101577.63
2023-02-02T15:34:53.194Z,101587.69
2023-02-02T15:37:22.948Z,101590.03
2023-02-02T15:39:52.849Z,101598.34
2023-02-02T15:42:41.730Z,101588.16
2023-02-02T15:45:29.067Z,101603.41
2023-02-02T15:47:57.303Z,101567.69
2023-02-02T15:50:23.978Z,101578.41
2023-02-02T15:52:52.008Z,101600.97
2023-02-02T15:55:23.645Z,101611.72
2023-02-02T15:57:54.370Z,101623.81
2023-02-02T16:00:38.114Z,101610.25
2023-02-02T16:03:07.652Z,101619.84
2023-02-02T16:05:37.195Z,101613.59
2023-02-02T16:08:19.054Z,101614.94
2023-02-02T16:10:48.157Z,101618.84
2023-02-02T16:13:27.984Z,101614.97
2023-02-02T16:15:56.973Z,101620.00
2023-02-02T16:18:23.538Z,101590.41
2023-02-02T16:20:51.500Z,101621.44
2023-02-02T16:23:23.875Z,101619.56
2023-02-02T16:25:52.672Z,101622.50
2023-02-02T16:28:21.907Z,101627.75
2023-02-02T16:30:48.800Z,101618.28
2023-02-02T16:33:33.705Z,101634.88
2023-02-02T16:36:00.709Z,101625.59
2023-02-02T16:38:37.615Z,101632.75
2023-02-02T16:41:14.229Z,101629.38
2023-02-02T16:43:42.051Z,101631.16
2023-02-02T16:46:15.344Z,101635.63
2023-02-02T16:48:59.921Z,101632.16
2023-02-02T16:51:33.943Z,101619.81
2023-02-02T16:54:06.956Z,101647.03
2023-02-02T16:56:36.545Z,101640.91
2023-02-02T16:59:23.077Z,101659.13
2023-02-02T17:01:52.667Z,101661.69
2023-02-02T17:04:24.867Z,101666.59
2023-02-02T17:06:53.410Z,101665.88
2023-02-02T17:09:34.021Z,101659.06
2023-02-02T17:12:16.790Z,101669.84
2023-02-02T17:15:00.308Z,101647.59
2023-02-02T17:17:27.550Z,101661.06
2023-02-02T17:19:54.164Z,101665.41
2023-02-02T17:22:23.149Z,101639.31
2023-02-02T17:24:51.481Z,101641.56
2023-02-02T17:27:27.085Z,101670.41
2023-02-02T17:29:54.306Z,101671.97
2023-02-02T17:32:21.023Z,101685.66
2023-02-02T17:34:47.624Z,101650.72
2023-02-02T17:37:14.213Z,101684.13
2023-02-02T17:39:40.720Z,101646.63
2023-02-02T17:42:21.016Z,101685.03
2023-02-02T17:44:47.963Z,101662.03
2023-02-02T17:47:14.555Z,101679.31
2023-02-02T17:49:41.117Z,101686.94
2023-02-02T17:52:09.972Z,101677.38
2023-02-02T17:54:36.533Z,101643.03
2023-02-02T17:57:03.420Z,101691.91
2023-02-02T17:59:30.335Z,101684.81
2023-02-02T18:01:57.837Z,101685.56
2023-02-02T18:04:26.303Z,101621.13
2023-02-02T18:06:52.898Z,101657.34
2023-02-02T18:09:19.470Z,101684.53
2023-02-02T18:11:48.281Z,101676.44
2023-02-02T18:14:15.158Z,101677.38
2023-02-02T18:16:41.731Z,101689.47
2023-02-02T18:19:08.695Z,101671.06
2023-02-02T18:21:35.449Z,101677.28
2023-02-02T18:24:02.245Z,101672.44
2023-02-02T18:26:28.768Z,101677.50
2023-02-02T18:28:55.305Z,101674.56
2023-02-02T18:31:24.025Z,101676.16
2023-02-02T18:33:51.087Z,101674.00
2023-02-02T18:36:20.619Z,101663.66
2023-02-02T18:38:48.322Z,101676.03
2023-02-02T18:41:16.512Z,101678.09
2023-02-02T18:43:44.643Z,101671.19
2023-02-02T18:46:16.425Z,101637.63
2023-02-02T18:48:43.383Z,101677.41
2023-02-02T18:51:18.753Z,101677.50
2023-02-02T18:53:46.453Z,101671.41
2023-02-02T18:56:14.696Z,101676.91
2023-02-02T18:58:41.363Z,101668.41
2023-02-02T19:01:17.071Z,101658.09
2023-02-02T19:03:48.431Z,101670.41
2023-02-02T19:06:33.837Z,101626.03
2023-02-02T19:09:03.780Z,101649.75
2023-02-02T19:11:49.532Z,101671.53
2023-02-02T19:14:18.227Z,101670.31
2023-02-02T19:16:46.992Z,101675.78
2023-02-02T19:19:25.554Z,101675.94
2023-02-02T19:21:55.965Z,101667.94
2023-02-02T19:24:24.253Z,101657.97
2023-02-02T19:26:50.931Z,101647.84
2023-02-02T19:29:21.095Z,101668.66
2023-02-02T19:32:00.651Z,101664.88
2023-02-02T19:34:27.231Z,101683.25
2023-02-02T19:36:53.867Z,101689.56
2023-02-02T19:39:30.871Z,101686.41
2023-02-02T19:41:59.816Z,101683.91
2023-02-02T19:44:30.225Z,101656.75
2023-02-02T19:46:57.601Z,101685.00
2023-02-02T19:49:30.027Z,101697.09
2023-02-02T19:51:58.497Z,101688.97
2023-02-02T19:54:47.984Z,101691.84
2023-02-02T19:57:22.873Z,101693.63
2023-02-02T19:59:50.693Z,101690.78
2023-02-02T20:02:54.401Z,101694.94
2023-02-02T20:05:28.157Z,101679.88
2023-02-02T20:08:19.169Z,101692.63
2023-02-02T20:10:46.882Z,101664.16
2023-02-02T20:13:26.040Z,101675.03
2023-02-02T20:16:03.534Z,101669.63
2023-02-02T20:18:39.017Z,101689.88
2023-02-02T20:21:16.797Z,101640.03
2023-02-02T20:23:45.823Z,101690.97
2023-02-02T20:26:33.836Z,101687.59
2023-02-02T20:29:22.375Z,101686.00
2023-02-02T20:31:50.861Z,101693.50
2023-02-02T20:34:23.426Z,101657.84
2023-02-02T20:36:51.168Z,101642.63
2023-02-02T20:39:36.098Z,101653.81
2023-02-02T20:42:04.308Z,101676.25
2023-02-02T20:44:33.082Z,101682.75
2023-02-02T20:47:01.148Z,101655.41
2023-02-02T20:49:31.651Z,101671.72
2023-02-02T20:52:00.798Z,101686.81
2023-02-02T20:54:27.484Z,101678.47
2023-02-02T20:56:54.452Z,101681.41
2023-02-02T20:59:21.090Z,101675.91
2023-02-02T21:01:49.951Z,101647.72
2023-02-02T21:04:17.640Z,101634.31
2023-02-02T21:06:44.415Z,101675.91
2023-02-02T21:09:11.616Z,101635.69
2023-02-02T21:11:38.425Z,101681.53
2023-02-02T21:14:05.420Z,101664.53
2023-02-02T21:16:32.529Z,101679.09
2023-02-02T21:19:01.732Z,101668.72
2023-02-02T21:21:28.403Z,101664.25
2023-02-02T21:23:56.245Z,101676.84
2023-02-02T21:26:26.981Z,101708.53
2023-02-02T21:28:53.605Z,101705.19
2023-02-02T21:31:20.443Z,101714.25
2023-02-02T21:33:48.550Z,101714.88
2023-02-02T21:36:29.121Z,101723.22
2023-02-02T21:39:11.554Z,101718.91
2023-02-02T21:41:38.041Z,101713.38
2023-02-02T21:44:12.626Z,101656.38
2023-02-02T21:46:39.295Z,101710.31
2023-02-02T21:49:13.610Z,101709.13
2023-02-02T21:51:40.167Z,101714.66
2023-02-02T21:54:24.596Z,101719.09
2023-02-02T21:56:52.493Z,101716.78
2023-02-02T21:59:21.700Z,101705.63
2023-02-02T22:01:49.651Z,101682.91
2023-02-02T22:04:20.864Z,101688.00
2023-02-02T22:07:12.066Z,101673.38
2023-02-02T22:09:40.119Z,101680.25
2023-02-02T22:12:23.450Z,101675.59
2023-02-02T22:14:52.225Z,101690.78
2023-02-02T22:17:38.863Z,101669.31
2023-02-02T22:20:30.148Z,101675.13
2023-02-02T22:22:56.668Z,101679.16
2023-02-02T22:25:33.343Z,101696.13
2023-02-02T22:28:10.655Z,101680.84
2023-02-02T22:30:39.987Z,101664.63
2023-02-02T22:33:09.177Z,101686.84
2023-02-02T22:35:35.764Z,101705.22
2023-02-02T22:38:02.822Z,101702.56
2023-02-02T22:40:29.721Z,101696.50
2023-02-02T22:43:00.779Z,101693.69
2023-02-02T22:45:27.324Z,101667.22
2023-02-02T22:47:54.422Z,101686.84
2023-02-02T22:50:23.376Z,101672.75
2023-02-02T22:52:50.437Z,101653.56
2023-02-02T22:55:17.439Z,101655.34
2023-02-02T22:57:44.256Z,101664.03
2023-02-02T23:00:17.016Z,101669.59
2023-02-02T23:02:43.839Z,101654.94
2023-02-02T23:05:12.693Z,101677.13
2023-02-02T23:07:39.746Z,101663.47
2023-02-02T23:10:07.503Z,101656.69
2023-02-02T23:12:34.213Z,101667.88
2023-02-02T23:15:01.042Z,101670.88
2023-02-02T23:17:27.622Z,101663.38
2023-02-02T23:19:54.394Z,101616.75
2023-02-02T23:22:20.968Z,101648.66
2023-02-02T23:24:47.568Z,101669.28
2023-02-02T23:27:14.331Z,101668.41
2023-02-02T23:29:40.849Z,101673.03
2023-02-02T23:32:07.382Z,101640.47
2023-02-02T23:34:33.942Z,101675.56
2023-02-02T23:37:00.511Z,101643.47
2023-02-02T23:39:27.101Z,101648.44
2023-02-02T23:41:53.610Z,101665.88
2023-02-02T23:44:20.275Z,101657.91
2023-02-02T23:46:47.119Z,101637.47
2023-02-02T23:49:13.746Z,101648.06
2023-02-02T23:51:40.352Z,101597.53
2023-02-02T23:54:06.954Z,101623.13
2023-02-02T23:56:33.570Z,101619.53
2023-02-02T23:59:00.037Z,101618.19
